Time;durP1;ratioP1;P1;durP2;ratioP2;P2;SDS_P1;SDS_P2;PMS_P1;PMS_P2;Temp;Humidity;BMP_temperature;BMP_pressure;BME280_temperature;BME280_humidity;BME280_pressure;Samples;Min_cycle;Max_cycle;Signal;HPM_P1;HPM_P2
2024/03/18 00:01:49;;;;;;;4.20;2.80;;;;;;;0.62;75.20;100495.02;130889;1253;108428;-85
2024/03/18 00:04:56;;;;;;;5.00;2.80;;;;;;;0.67;75.12;100493.33;131003;1253;107607;-87
2024/03/18 00:08:01;;;;;;;6.40;4.00;;;;;;;0.69;75.19;100494.98;130909;1254;106450;-85
2024/03/18 00:11:06;;;;;;;3.30;2.40;;;;;;;0.68;75.87;100494.52;130917;1257;107764;-86
2024/03/18 00:14:12;;;;;;;6.20;3.50;;;;;;;0.60;75.90;100491.06;130937;1253;107539;-86
2024/03/18 00:17:17;;;;;;;4.20;2.60;;;;;;;0.53;76.51;100493.58;130964;1258;107585;-85
2024/03/18 00:20:22;;;;;;;5.40;2.40;;;;;;;0.46;76.40;100490.81;130917;1257;108675;-86
2024/03/18 00:23:27;;;;;;;3.00;1.50;;;;;;;0.45;76.46;100486.48;131001;1259;108568;-85
2024/03/18 00:26:32;;;;;;;3.50;2.00;;;;;;;0.50;76.78;100490.23;131031;1253;107268;-86
2024/03/18 00:29:37;;;;;;;4.40;2.60;;;;;;;0.51;76.74;100492.06;131058;1253;107733;-86
2024/03/18 00:32:43;;;;;;;4.50;2.40;;;;;;;0.52;77.03;100489.06;130959;1253;108614;-84
2024/03/18 00:35:49;;;;;;;3.90;1.90;;;;;;;0.51;76.94;100493.34;130972;1253;108176;-86
2024/03/18 00:38:54;;;;;;;3.90;1.80;;;;;;;0.51;76.78;100481.64;131058;1257;107759;-87
2024/03/18 00:42:00;;;;;;;3.80;2.00;;;;;;;0.51;77.15;100478.41;131057;1258;106537;-84
2024/03/18 00:45:06;;;;;;;4.30;2.60;;;;;;;0.53;76.66;100477.45;131024;1258;108724;-87
2024/03/18 00:48:11;;;;;;;4.40;1.80;;;;;;;0.51;77.20;100474.96;130950;1257;108554;-83
2024/03/18 00:51:16;;;;;;;5.10;2.50;;;;;;;0.50;77.04;100475.17;130965;1253;108729;-86
2024/03/18 00:54:23;;;;;;;3.50;2.10;;;;;;;0.50;78.37;100476.58;131014;1259;107522;-84
2024/03/18 00:57:29;;;;;;;4.80;2.40;;;;;;;0.50;78.12;100469.75;130930;1253;106785;-83
2024/03/18 01:00:34;;;;;;;5.00;2.40;;;;;;;0.49;78.21;100468.62;130992;1258;107577;-87
2024/03/18 01:03:39;;;;;;;3.30;2.10;;;;;;;0.45;78.07;100467.95;131087;1257;108711;-84
2024/03/18 01:06:44;;;;;;;6.20;3.10;;;;;;;0.44;78.28;100467.27;130989;1258;108751;-86
2024/03/18 01:09:49;;;;;;;5.50;2.50;;;;;;;0.43;78.16;100466.47;131032;1258;108764;-86
2024/03/18 01:12:55;;;;;;;4.40;2.50;;;;;;;0.42;78.12;100461.77;130997;1253;106322;-86
2024/03/18 01:16:00;;;;;;;4.80;2.70;;;;;;;0.38;78.48;100454.98;130942;1253;106705;-86
2024/03/18 01:19:05;;;;;;;4.50;2.30;;;;;;;0.36;78.90;100457.39;130892;1258;107885;-85
2024/03/18 01:22:10;;;;;;;3.20;1.60;;;;;;;0.37;78.60;100456.46;130945;1253;108696;-85
2024/03/18 01:25:17;;;;;;;4.10;2.10;;;;;;;0.45;78.99;100456.40;131016;1253;106994;-85
2024/03/18 01:28:22;;;;;;;5.40;2.40;;;;;;;0.41;78.79;100456.41;130897;1257;107751;-85
2024/03/18 01:31:28;;;;;;;5.20;2.40;;;;;;;0.39;78.66;100452.65;130884;1257;106713;-85
2024/03/18 01:34:33;;;;;;;3.50;2.30;;;;;;;0.42;78.86;100446.03;131002;1258;107421;-85
2024/03/18 01:37:39;;;;;;;2.90;1.80;;;;;;;0.42;78.75;100447.30;131078;1259;107121;-84
2024/03/18 01:40:44;;;;;;;3.80;2.10;;;;;;;0.37;78.85;100448.73;131050;1257;105583;-85
2024/03/18 01:43:49;;;;;;;4.20;2.10;;;;;;;0.32;78.92;100443.95;131159;1257;107764;-85
2024/03/18 01:46:55;;;;;;;4.90;1.90;;;;;;;0.30;79.15;100445.10;130937;1257;108609;-84
2024/03/18 01:50:01;;;;;;;4.40;1.70;;;;;;;0.30;79.17;100444.93;130915;1253;108863;-84
2024/03/18 01:53:06;;;;;;;3.30;1.80;;;;;;;0.33;79.03;100445.30;130886;1254;108665;-84
2024/03/18 01:56:13;;;;;;;4.30;1.90;;;;;;;0.38;78.76;100442.90;130855;1258;107074;-84
2024/03/18 01:59:19;;;;;;;3.10;1.50;;;;;;;0.41;78.97;100445.91;130892;1267;106932;-84
2024/03/18 02:02:24;;;;;;;4.40;2.20;;;;;;;0.39;78.72;100440.05;130891;1256;108059;-84
2024/03/18 02:05:29;;;;;;;4.00;2.20;;;;;;;0.42;78.74;100442.70;131001;1258;106792;-85
2024/03/18 02:08:35;;;;;;;4.30;2.10;;;;;;;0.44;78.70;100432.30;131054;1253;107175;-83
2024/03/18 02:11:40;;;;;;;4.60;1.90;;;;;;;0.42;78.79;100430.30;131029;1259;107655;-83
2024/03/18 02:14:51;;;;;;;4.30;2.10;;;;;;;0.43;78.87;100432.16;130999;1253;108593;-83
2024/03/18 02:17:56;;;;;;;5.80;2.30;;;;;;;0.44;78.70;100435.77;130908;1253;108531;-84
2024/03/18 02:21:02;;;;;;;4.30;1.90;;;;;;;0.47;78.86;100433.84;131031;1258;108244;-84
2024/03/18 02:24:07;;;;;;;6.80;2.30;;;;;;;0.48;78.65;100429.42;130975;1258;109348;-84
2024/03/18 02:27:13;;;;;;;6.60;2.40;;;;;;;0.52;78.38;100433.93;130882;1258;107762;-84
2024/03/18 02:30:19;;;;;;;4.40;2.30;;;;;;;0.51;78.61;100432.77;130996;1253;108079;-84
2024/03/18 02:33:24;;;;;;;3.90;2.00;;;;;;;0.45;78.67;100430.65;130913;1253;137313;-84
2024/03/18 02:36:29;;;;;;;5.80;2.30;;;;;;;0.38;78.62;100431.36;131012;1258;107620;-83
2024/03/18 02:39:35;;;;;;;4.20;2.40;;;;;;;0.28;78.79;100432.42;131036;1259;107723;-85
2024/03/18 02:42:41;;;;;;;4.10;1.90;;;;;;;0.25;78.92;100433.83;131161;1253;107742;-85
2024/03/18 02:45:47;;;;;;;3.70;2.00;;;;;;;0.28;79.19;100434.35;131035;1259;107735;-84
2024/03/18 02:48:52;;;;;;;3.40;2.00;;;;;;;0.31;79.20;100435.95;130985;1253;107697;-85
2024/03/18 02:51:57;;;;;;;4.80;2.10;;;;;;;0.35;78.88;100433.11;131034;1258;107171;-85
2024/03/18 02:55:03;;;;;;;5.30;2.00;;;;;;;0.35;79.07;100430.30;131017;1259;106648;-86
2024/03/18 02:58:08;;;;;;;4.50;1.70;;;;;;;0.32;79.06;100427.33;130966;1253;107753;-85
2024/03/18 03:01:13;;;;;;;4.10;1.90;;;;;;;0.29;78.91;100423.95;130922;1257;106486;-84
2024/03/18 03:04:18;;;;;;;4.60;1.60;;;;;;;0.28;78.88;100421.43;130941;1259;108640;-86
2024/03/18 03:07:23;;;;;;;4.60;2.00;;;;;;;0.25;79.05;100417.02;130903;1258;108679;-85
2024/03/18 03:10:28;;;;;;;3.90;2.30;;;;;;;0.28;78.66;100411.80;130865;1257;107691;-85
2024/03/18 03:13:34;;;;;;;4.00;1.80;;;;;;;0.35;78.64;100414.71;130914;1259;106930;-84
2024/03/18 03:16:39;;;;;;;5.30;2.10;;;;;;;0.42;78.53;100412.45;131152;1253;108564;-87
2024/03/18 03:19:45;;;;;;;4.30;1.90;;;;;;;0.51;78.39;100409.70;130995;1258;107717;-84
2024/03/18 03:22:50;;;;;;;3.90;1.90;;;;;;;0.55;78.45;100413.45;130933;1257;108689;-85
2024/03/18 03:25:55;;;;;;;5.30;2.10;;;;;;;0.50;78.30;100415.98;130996;1258;107678;-85
2024/03/18 03:29:00;;;;;;;3.00;1.80;;;;;;;0.46;78.32;100412.39;130973;1258;108604;-84
2024/03/18 03:32:05;;;;;;;5.40;2.50;;;;;;;0.39;78.28;100413.29;131070;1258;107631;-86
2024/03/18 03:35:11;;;;;;;3.20;1.60;;;;;;;0.37;78.32;100403.73;130980;1258;107643;-87
2024/03/18 03:38:16;;;;;;;3.20;2.20;;;;;;;0.37;78.28;100403.91;131375;1256;107675;-83
2024/03/18 03:41:21;;;;;;;4.30;2.70;;;;;;;0.41;78.23;100410.92;131091;1259;107235;-86
2024/03/18 03:44:26;;;;;;;5.50;2.20;;;;;;;0.40;78.37;100406.24;131149;1253;106381;-85
2024/03/18 03:47:33;;;;;;;3.80;1.90;;;;;;;0.37;78.31;100401.65;131146;1258;108730;-86
2024/03/18 03:50:38;;;;;;;3.70;1.90;;;;;;;0.38;78.42;100404.20;130993;1259;106640;-83
2024/03/18 03:53:43;;;;;;;2.80;1.80;;;;;;;0.36;78.33;100403.13;131865;1257;106307;-83
2024/03/18 03:56:48;;;;;;;6.10;1.60;;;;;;;0.33;78.36;100404.17;131766;1257;107693;-83
2024/03/18 03:59:53;;;;;;;3.90;2.10;;;;;;;0.26;78.62;100400.34;131726;1253;108423;-84
2024/03/18 04:02:58;;;;;;;3.60;2.00;;;;;;;0.23;78.55;100400.17;131353;1258;108643;-84
2024/03/18 04:06:04;;;;;;;4.30;1.90;;;;;;;0.27;78.52;100397.17;131384;1253;106205;-83
2024/03/18 04:09:10;;;;;;;3.50;1.90;;;;;;;0.31;78.53;100397.42;131198;1258;107631;-84
2024/03/18 04:12:16;;;;;;;3.30;2.00;;;;;;;0.38;78.30;100395.12;130988;1259;106346;-85
2024/03/18 04:15:21;;;;;;;7.00;3.10;;;;;;;0.49;78.33;100396.45;130969;1258;106514;-84
2024/03/18 04:18:26;;;;;;;4.70;2.10;;;;;;;0.54;77.84;100397.77;130967;1253;108659;-84
2024/03/18 04:21:32;;;;;;;3.90;2.30;;;;;;;0.55;77.80;100393.84;131009;1258;108647;-83
2024/03/18 04:24:37;;;;;;;2.70;1.70;;;;;;;0.50;77.64;100396.41;130926;1253;108753;-84
2024/03/18 04:27:42;;;;;;;3.40;2.00;;;;;;;0.49;77.80;100394.89;130925;1253;107670;-86
2024/03/18 04:30:48;;;;;;;6.70;3.60;;;;;;;0.51;77.87;100397.95;131104;1253;107741;-86
2024/03/18 04:33:53;;;;;;;3.90;2.00;;;;;;;0.55;77.66;100398.94;130896;1258;107765;-86
2024/03/18 04:36:59;;;;;;;4.40;2.20;;;;;;;0.58;77.60;100395.45;130903;1264;108176;-85
2024/03/18 04:40:06;;;;;;;4.00;1.70;;;;;;;0.63;77.47;100391.51;130954;1259;107719;-86
2024/03/18 04:43:11;;;;;;;5.90;2.40;;;;;;;0.73;77.39;100390.92;131099;1258;107507;-86
2024/03/18 04:46:16;;;;;;;4.70;2.00;;;;;;;0.85;77.27;100388.85;131020;1257;107526;-84
2024/03/18 04:49:21;;;;;;;8.10;3.30;;;;;;;0.89;77.10;100393.54;130983;1253;108739;-86
2024/03/18 04:52:27;;;;;;;5.90;3.20;;;;;;;0.93;76.92;100394.02;130984;1259;106556;-86
2024/03/18 04:55:32;;;;;;;17.00;10.30;;;;;;;0.81;76.53;100396.05;130973;1258;108748;-84
2024/03/18 04:58:37;;;;;;;6.00;2.60;;;;;;;0.76;77.01;100400.02;130975;1253;108218;-84
2024/03/18 05:01:42;;;;;;;4.20;2.10;;;;;;;0.72;76.79;100400.63;130975;1253;107751;-85
2024/03/18 05:04:48;;;;;;;3.80;2.00;;;;;;;0.65;77.03;100402.59;130990;1257;108689;-85
2024/03/18 05:07:54;;;;;;;9.50;4.60;;;;;;;0.63;77.43;100404.97;131017;1259;106382;-84
2024/03/18 05:11:00;;;;;;;3.00;1.50;;;;;;;0.52;78.12;100405.39;131016;1259;108360;-86
2024/03/18 05:14:05;;;;;;;4.60;2.00;;;;;;;0.40;80.03;100405.70;130975;1258;106440;-84
2024/03/18 05:17:10;;;;;;;15.00;7.80;;;;;;;0.34;79.97;100406.90;130946;1253;105439;-85
2024/03/18 05:20:15;;;;;;;4.20;1.80;;;;;;;0.31;80.57;100407.25;131028;1254;106195;-85
2024/03/18 05:23:21;;;;;;;3.90;2.70;;;;;;;0.26;81.28;100403.48;130990;1257;105652;-85
2024/03/18 05:26:26;;;;;;;3.20;2.00;;;;;;;0.24;80.89;100401.84;131006;1259;106938;-84
2024/03/18 05:29:31;;;;;;;11.00;5.80;;;;;;;0.30;81.06;100400.50;131043;1255;108711;-85
2024/03/18 05:32:36;;;;;;;4.00;2.00;;;;;;;0.31;81.02;100397.80;130982;1259;109000;-85
2024/03/18 05:35:41;;;;;;;6.40;3.10;;;;;;;0.37;81.44;100401.48;130950;1256;107840;-85
2024/03/18 05:38:46;;;;;;;4.10;2.20;;;;;;;0.45;81.07;100401.42;130998;1259;107459;-85
2024/03/18 05:41:52;;;;;;;5.50;2.30;;;;;;;0.54;81.05;100403.89;131117;1266;107463;-86
2024/03/18 05:44:57;;;;;;;8.80;3.20;;;;;;;0.66;80.66;100402.17;130965;1257;108525;-83
2024/03/18 05:48:02;;;;;;;12.00;6.40;;;;;;;0.77;80.81;100403.31;130920;1253;107188;-85
2024/03/18 05:51:08;;;;;;;3.90;2.40;;;;;;;0.70;80.70;100403.88;130905;1257;107686;-85
2024/03/18 05:54:13;;;;;;;5.20;2.80;;;;;;;0.68;80.92;100405.88;131019;1262;106966;-85
2024/03/18 05:57:18;;;;;;;5.20;2.90;;;;;;;0.61;80.93;100405.27;131077;1256;107674;-84
2024/03/18 06:00:24;;;;;;;5.80;2.40;;;;;;;0.62;80.79;100400.82;130900;1258;108628;-86
2024/03/18 06:03:30;;;;;;;12.30;5.50;;;;;;;0.62;80.81;100400.47;131091;1266;108873;-85
2024/03/18 06:06:36;;;;;;;12.20;5.90;;;;;;;0.62;80.69;100401.71;131008;1257;107660;-84
2024/03/18 06:09:41;;;;;;;6.80;2.50;;;;;;;0.69;80.66;100396.42;130967;1258;108727;-86
2024/03/18 06:12:46;;;;;;;3.30;2.00;;;;;;;0.78;80.63;100394.34;131094;1257;108658;-85
2024/03/18 06:15:51;;;;;;;4.50;2.00;;;;;;;0.80;80.41;100396.98;130926;1258;106565;-85
2024/03/18 06:18:57;;;;;;;3.60;2.00;;;;;;;0.71;80.26;100397.33;131076;1259;106225;-85
2024/03/18 06:22:05;;;;;;;3.90;1.90;;;;;;;0.69;80.31;100400.80;130991;1253;109318;-85
2024/03/18 06:28:35;;;;;;;6.00;1.90;;;;;;;0.65;80.25;100404.16;130924;1258;107636;-85
2024/03/18 06:31:40;;;;;;;4.00;2.00;;;;;;;0.65;80.25;100402.02;131026;1259;106072;-85
2024/03/18 06:34:45;;;;;;;4.60;2.40;;;;;;;0.66;80.39;100402.69;131106;1260;106404;-85
2024/03/18 06:37:50;;;;;;;5.70;2.80;;;;;;;0.65;80.37;100406.10;130925;1266;107687;-86
2024/03/18 06:40:56;;;;;;;5.90;2.80;;;;;;;0.66;80.36;100404.29;130867;1259;108856;-86
2024/03/18 06:44:01;;;;;;;5.10;2.40;;;;;;;0.76;80.23;100398.98;130913;1266;108612;-84
2024/03/18 06:47:06;;;;;;;6.40;2.40;;;;;;;0.84;79.90;100402.77;130951;1259;107207;-85
2024/03/18 06:50:12;;;;;;;4.50;2.20;;;;;;;0.82;79.45;100399.16;131107;1257;107130;-86
2024/03/18 06:53:18;;;;;;;7.30;2.60;;;;;;;0.78;79.63;100403.77;131017;1254;106871;-82
2024/03/18 06:56:23;;;;;;;8.70;4.00;;;;;;;0.70;79.74;100397.08;131121;1253;106471;-83
2024/03/18 06:59:28;;;;;;;2.20;1.50;;;;;;;0.64;79.91;100403.34;131350;1257;107379;-83
2024/03/18 07:02:34;;;;;;;6.20;2.10;;;;;;;0.57;79.86;100401.44;131270;1257;106275;-84
2024/03/18 07:05:39;;;;;;;5.60;2.40;;;;;;;0.67;80.29;100397.05;131241;1258;108691;-83
2024/03/18 07:08:45;;;;;;;4.70;1.90;;;;;;;0.75;80.55;100398.86;131202;1257;106699;-83
2024/03/18 07:11:51;;;;;;;4.10;1.80;;;;;;;0.73;80.59;100393.57;130996;1259;107173;-86
2024/03/18 07:14:56;;;;;;;6.10;3.40;;;;;;;0.85;80.71;100396.05;130767;1266;107679;-86
2024/03/18 07:18:01;;;;;;;3.60;2.30;;;;;;;0.92;80.75;100391.60;130909;1260;107398;-84
2024/03/18 07:21:08;;;;;;;6.40;3.00;;;;;;;0.93;80.81;100391.92;130662;1263;108086;-81
2024/03/18 07:24:15;;;;;;;4.10;2.20;;;;;;;0.90;80.83;100393.80;130678;1266;107437;-77
2024/03/18 07:27:20;;;;;;;6.10;2.80;;;;;;;0.86;81.10;100396.16;130564;1263;108256;-78
2024/03/18 07:30:25;;;;;;;109.60;40.90;;;;;;;0.81;81.85;100394.49;130550;1258;106481;-77
2024/03/18 07:33:31;;;;;;;39.40;17.70;;;;;;;0.81;81.65;100395.58;130609;1254;108625;-79
2024/03/18 07:36:39;;;;;;;5.20;2.60;;;;;;;0.92;81.70;100396.67;130531;1260;106915;-78
2024/03/18 07:39:45;;;;;;;26.80;11.30;;;;;;;1.05;81.48;100398.56;130554;1254;108601;-76
2024/03/18 07:42:50;;;;;;;19.70;8.70;;;;;;;1.16;81.52;100397.02;130582;1259;106417;-79
2024/03/18 07:45:55;;;;;;;8.40;4.20;;;;;;;1.23;81.43;100398.75;130569;1258;106350;-77
2024/03/18 07:49:00;;;;;;;14.30;6.70;;;;;;;1.30;81.32;100400.45;130572;1257;107666;-77
2024/03/18 07:52:07;;;;;;;15.20;6.70;;;;;;;1.39;81.33;100400.23;130619;1263;107410;-77
2024/03/18 07:55:12;;;;;;;7.90;4.20;;;;;;;1.43;81.07;100393.89;130578;1258;107667;-77
2024/03/18 07:58:17;;;;;;;5.10;2.90;;;;;;;1.53;80.94;100400.63;130672;1264;108708;-76
2024/03/18 08:01:24;;;;;;;13.60;6.50;;;;;;;1.49;80.74;100399.32;130824;1266;107088;-77
2024/03/18 08:04:29;;;;;;;14.00;6.90;;;;;;;1.48;80.78;100398.52;130783;1258;108593;-78
2024/03/18 08:07:34;;;;;;;5.70;2.80;;;;;;;1.55;81.04;100401.40;130799;1259;108749;-77
2024/03/18 08:10:39;;;;;;;4.80;2.20;;;;;;;1.54;80.52;100403.77;130719;1259;106977;-80
2024/03/18 08:13:45;;;;;;;6.20;3.40;;;;;;;1.51;80.40;100402.37;130564;1259;106705;-77
2024/03/18 08:16:50;;;;;;;4.70;2.90;;;;;;;1.51;80.41;100397.77;130757;1260;107071;-77
2024/03/18 08:19:55;;;;;;;7.70;2.90;;;;;;;1.58;80.39;100394.95;130834;1258;108654;-77
2024/03/18 08:23:00;;;;;;;12.70;7.20;;;;;;;1.66;80.24;100393.42;130800;1258;107566;-77
2024/03/18 08:26:06;;;;;;;5.80;3.20;;;;;;;1.78;80.30;100389.70;130805;1267;108844;-77
2024/03/18 08:29:11;;;;;;;14.40;8.40;;;;;;;1.88;79.84;100388.55;130799;1260;108483;-79
2024/03/18 08:32:16;;;;;;;6.80;3.90;;;;;;;1.96;79.54;100382.98;130794;1258;107282;-76
2024/03/18 08:35:21;;;;;;;8.30;4.00;;;;;;;2.02;79.34;100383.34;130717;1256;108733;-79
2024/03/18 08:38:27;;;;;;;56.20;24.20;;;;;;;1.99;78.58;100385.92;130742;1266;107720;-77
2024/03/18 08:41:32;;;;;;;81.20;32.00;;;;;;;1.96;79.10;100386.46;130661;1259;108551;-79
2024/03/18 08:44:37;;;;;;;10.80;4.60;;;;;;;2.07;79.19;100389.49;130649;1255;108297;-77
2024/03/18 08:47:43;;;;;;;7.80;3.80;;;;;;;2.06;78.36;100393.04;130760;1254;108520;-77
2024/03/18 08:50:49;;;;;;;7.60;3.90;;;;;;;1.97;78.07;100394.82;130626;1259;107746;-78
2024/03/18 08:53:54;;;;;;;4.70;2.80;;;;;;;1.86;78.26;100393.95;130764;1261;106307;-76
2024/03/18 08:56:59;;;;;;;6.40;3.20;;;;;;;1.84;78.52;100394.39;130819;1258;105562;-77
2024/03/18 09:00:10;;;;;;;6.60;3.70;;;;;;;1.88;78.91;100391.89;130817;1259;107667;-77
2024/03/18 09:03:15;;;;;;;32.70;14.00;;;;;;;1.94;78.47;100394.65;130831;1267;108449;-77
2024/03/18 09:06:21;;;;;;;6.20;3.20;;;;;;;1.99;78.76;100392.48;130795;1257;107865;-77
2024/03/18 09:09:26;;;;;;;5.50;3.00;;;;;;;2.06;78.72;100392.20;130782;1254;107377;-78
2024/03/18 09:12:32;;;;;;;5.60;3.50;;;;;;;2.17;78.35;100393.27;130507;1257;107144;-78
2024/03/18 09:15:37;;;;;;;66.10;33.80;;;;;;;2.20;78.54;100390.98;130577;1257;108740;-77
2024/03/18 09:18:42;;;;;;;17.20;10.70;;;;;;;2.19;78.33;100392.60;130578;1258;106833;-78
2024/03/18 09:21:48;;;;;;;16.90;10.60;;;;;;;2.21;78.20;100393.19;130658;1254;107637;-77
2024/03/18 09:24:53;;;;;;;13.90;7.20;;;;;;;2.13;77.98;100396.11;130574;1257;107613;-78
2024/03/18 09:27:59;;;;;;;4.80;3.50;;;;;;;2.05;78.02;100403.66;130730;1258;107418;-77
2024/03/18 09:31:05;;;;;;;12.80;7.80;;;;;;;1.94;78.73;100400.65;130519;1266;108534;-79
2024/03/18 09:34:10;;;;;;;13.80;8.60;;;;;;;1.91;79.29;100402.95;130696;1270;106423;-77
2024/03/18 09:37:15;;;;;;;13.20;6.80;;;;;;;1.99;79.51;100400.70;130775;1264;107797;-77
2024/03/18 09:40:21;;;;;;;37.50;17.30;;;;;;;2.10;79.13;100395.64;130779;1264;107682;-78
2024/03/18 09:43:26;;;;;;;53.30;21.20;;;;;;;2.18;79.01;100395.48;130789;1259;108356;-79
2024/03/18 09:46:31;;;;;;;40.70;18.50;;;;;;;2.30;79.31;100392.41;130815;1255;106046;-76
2024/03/18 09:49:38;;;;;;;109.90;40.70;;;;;;;2.45;79.10;100396.27;130603;1260;107720;-77
2024/03/18 09:52:48;;;;;;;10.40;6.30;;;;;;;2.48;78.52;100397.80;130761;1257;108203;-77
2024/03/18 09:55:54;;;;;;;12.70;7.00;;;;;;;2.42;78.99;100398.36;130720;1258;107198;-77
2024/03/18 09:58:59;;;;;;;10.30;6.20;;;;;;;2.49;79.34;100399.66;130785;1254;107690;-78
2024/03/18 10:02:06;;;;;;;7.70;4.70;;;;;;;2.51;79.65;100397.42;130716;1254;108667;-78
2024/03/18 10:05:11;;;;;;;9.40;5.10;;;;;;;2.44;79.96;100393.86;130825;1254;107709;-78
2024/03/18 10:08:19;;;;;;;8.90;5.00;;;;;;;2.46;80.19;100391.09;130718;1253;107428;-76
2024/03/18 10:11:24;;;;;;;11.20;6.80;;;;;;;2.50;80.45;100390.81;130632;1258;106719;-77
2024/03/18 10:14:29;;;;;;;11.10;8.00;;;;;;;2.52;80.26;100391.60;130683;1254;106721;-79
2024/03/18 10:17:34;;;;;;;58.00;21.70;;;;;;;2.56;80.21;100391.50;130774;1258;107634;-78
2024/03/18 10:20:40;;;;;;;10.60;5.60;;;;;;;2.59;79.96;100391.66;130772;1257;106858;-79
2024/03/18 10:23:50;;;;;;;9.30;5.90;;;;;;;2.55;79.43;100389.79;130705;1257;108768;-78
2024/03/18 10:26:56;;;;;;;8.20;5.20;;;;;;;2.50;79.02;100390.80;130853;1254;107119;-78
2024/03/18 10:30:01;;;;;;;11.20;8.20;;;;;;;2.52;78.92;100389.84;130694;1257;108507;-78
2024/03/18 10:33:09;;;;;;;13.40;8.40;;;;;;;2.57;79.43;100386.35;130861;1254;108826;-78
2024/03/18 10:36:23;;;;;;;12.00;7.50;;;;;;;2.64;79.25;100389.20;130851;1257;106590;-79
2024/03/18 10:39:40;;;;;;;8.70;5.20;;;;;;;2.58;78.75;100389.61;130727;1254;107495;-78
2024/03/18 10:42:47;;;;;;;8.20;5.60;;;;;;;2.53;79.06;100387.46;130571;1254;108524;-78
2024/03/18 10:45:55;;;;;;;10.40;7.90;;;;;;;2.43;79.31;100393.58;130637;1258;108645;-77
2024/03/18 10:49:01;;;;;;;10.10;6.20;;;;;;;2.47;79.56;100394.15;131008;1254;107627;-78
2024/03/18 10:52:09;;;;;;;9.90;6.50;;;;;;;2.49;79.97;100401.27;130728;1257;108155;-78
2024/03/18 10:55:18;;;;;;;11.20;6.70;;;;;;;2.49;80.99;100398.28;130933;1257;108489;-78
2024/03/18 10:58:24;;;;;;;8.40;5.70;;;;;;;2.46;81.47;100399.02;130872;1254;106885;-78
2024/03/18 11:01:29;;;;;;;11.40;6.90;;;;;;;2.38;81.88;100397.40;130792;1257;106956;-79
2024/03/18 11:04:45;;;;;;;12.30;6.70;;;;;;;2.42;81.45;100391.39;130805;1257;107816;-81
2024/03/18 11:08:01;;;;;;;11.20;6.80;;;;;;;2.45;81.82;100392.90;130638;1258;111320;-80
2024/03/18 11:11:06;;;;;;;13.20;8.40;;;;;;;2.55;81.49;100387.02;130924;1257;107719;-78
2024/03/18 11:14:12;;;;;;;11.50;7.60;;;;;;;2.79;81.72;100385.42;130766;1254;108705;-80
2024/03/18 11:17:18;;;;;;;9.10;5.40;;;;;;;2.99;81.32;100383.77;130864;1258;107710;-78
2024/03/18 11:20:24;;;;;;;13.40;9.40;;;;;;;3.10;81.14;100386.42;130608;1257;106400;-77
2024/03/18 11:23:32;;;;;;;8.30;5.40;;;;;;;3.16;81.05;100390.04;130846;1254;107463;-78
2024/03/18 11:26:42;;;;;;;12.20;7.20;;;;;;;3.04;80.95;100390.48;130627;1257;107769;-80
2024/03/18 11:29:51;;;;;;;10.80;7.10;;;;;;;2.99;81.63;100387.11;130788;1254;107743;-77
2024/03/18 11:33:00;;;;;;;12.10;7.00;;;;;;;2.92;81.79;100385.64;130741;1259;108612;-77
2024/03/18 11:36:08;;;;;;;8.40;6.00;;;;;;;2.97;82.13;100384.27;130594;1257;106936;-80
2024/03/18 11:39:17;;;;;;;8.10;5.90;;;;;;;2.98;82.21;100387.22;130685;1268;107579;-80
2024/03/18 11:42:22;;;;;;;8.30;5.00;;;;;;;2.96;82.25;100384.02;130654;1257;107606;-78
2024/03/18 11:45:27;;;;;;;11.00;6.20;;;;;;;2.98;82.54;100382.45;130532;1257;107189;-78
2024/03/18 11:48:33;;;;;;;11.70;6.30;;;;;;;2.97;82.66;100379.91;130613;1254;108454;-78
2024/03/18 11:51:43;;;;;;;8.60;5.90;;;;;;;3.06;82.35;100377.87;130802;1259;106878;-78
2024/03/18 11:54:50;;;;;;;8.20;5.10;;;;;;;3.15;82.84;100372.71;130800;1253;107452;-77
2024/03/18 11:57:57;;;;;;;9.40;5.90;;;;;;;3.11;82.35;100372.94;130685;1254;107527;-77
2024/03/18 12:01:02;;;;;;;7.50;5.30;;;;;;;3.09;82.57;100372.94;130692;1258;107562;-77
2024/03/18 12:04:07;;;;;;;9.70;6.40;;;;;;;3.02;82.71;100370.05;130810;1254;107745;-78
2024/03/18 12:07:13;;;;;;;22.10;13.40;;;;;;;3.10;82.73;100372.16;130800;1258;108710;-77
2024/03/18 12:10:22;;;;;;;39.90;18.80;;;;;;;3.07;82.75;100374.45;130759;1257;107108;-77
2024/03/18 12:13:28;;;;;;;37.30;19.20;;;;;;;3.02;82.84;100377.09;130738;1258;108555;-77
2024/03/18 12:16:36;;;;;;;19.50;10.70;;;;;;;3.04;82.55;100380.50;130778;1253;108721;-78
2024/03/18 12:19:52;;;;;;;9.90;6.20;;;;;;;2.99;83.08;100378.55;130729;1254;107486;-77
2024/03/18 12:22:59;;;;;;;40.70;21.30;;;;;;;2.90;82.82;100375.95;130791;1259;107640;-78
2024/03/18 12:29:28;;;;;;;70.00;31.00;;;;;;;2.81;83.05;100376.17;130694;1259;107898;-77
2024/03/18 12:32:37;;;;;;;23.40;12.30;;;;;;;2.77;83.34;100376.79;130734;1259;108748;-78
2024/03/18 12:35:42;;;;;;;58.80;26.30;;;;;;;2.74;83.12;100372.94;130585;1258;107829;-77
2024/03/18 12:38:48;;;;;;;23.80;12.00;;;;;;;2.81;83.61;100376.39;130742;1259;107761;-77
2024/03/18 12:41:56;;;;;;;12.00;7.10;;;;;;;2.87;83.34;100372.95;130719;1259;107733;-78
2024/03/18 12:45:01;;;;;;;13.20;7.90;;;;;;;2.87;83.16;100377.59;130706;1254;108631;-77
2024/03/18 12:48:10;;;;;;;146.60;65.90;;;;;;;2.85;83.11;100379.44;130761;1257;108863;-77
2024/03/18 12:51:17;;;;;;;54.80;24.60;;;;;;;2.88;83.35;100380.33;130787;1257;108868;-78
2024/03/18 12:54:23;;;;;;;30.30;14.50;;;;;;;2.91;83.12;100379.52;130800;1257;108679;-78
2024/03/18 12:57:28;;;;;;;175.30;81.60;;;;;;;2.92;83.05;100379.31;130791;1257;105626;-80
2024/03/18 13:00:33;;;;;;;168.40;74.70;;;;;;;2.92;83.02;100380.89;130798;1257;107552;-80
2024/03/18 13:03:39;;;;;;;20.00;11.50;;;;;;;2.94;83.12;100379.54;130847;1258;107737;-80
2024/03/18 13:06:44;;;;;;;112.00;47.90;;;;;;;2.92;83.15;100380.06;130786;1259;107824;-78
2024/03/18 13:09:50;;;;;;;18.30;10.10;;;;;;;2.92;83.45;100380.17;130760;1257;107667;-78
2024/03/18 13:12:55;;;;;;;26.40;13.50;;;;;;;2.98;83.76;100375.97;130772;1257;106804;-78
2024/03/18 13:16:00;;;;;;;21.80;12.00;;;;;;;2.96;83.70;100378.34;130758;1257;108793;-78
2024/03/18 13:19:06;;;;;;;21.20;13.00;;;;;;;2.91;84.82;100377.08;130731;1253;108773;-78
2024/03/18 13:22:11;;;;;;;18.00;11.70;;;;;;;2.81;85.46;100376.92;130653;1254;107002;-78
2024/03/18 13:25:17;;;;;;;37.00;20.20;;;;;;;2.67;86.25;100371.61;130760;1261;108812;-78
2024/03/18 13:28:22;;;;;;;23.40;14.80;;;;;;;2.66;86.61;100375.77;130766;1253;106945;-78
2024/03/18 13:31:28;;;;;;;44.10;21.60;;;;;;;2.60;86.67;100369.48;130673;1253;108812;-79
2024/03/18 13:34:33;;;;;;;56.30;30.40;;;;;;;2.64;86.41;100370.08;130742;1257;106818;-78
2024/03/18 13:37:38;;;;;;;86.60;43.70;;;;;;;2.69;86.83;100370.31;130780;1254;108706;-78
2024/03/18 13:40:44;;;;;;;44.60;23.70;;;;;;;2.64;87.11;100371.48;130670;1257;108722;-78
2024/03/18 13:43:49;;;;;;;14.60;9.00;;;;;;;2.60;86.66;100368.80;130604;1257;106587;-78
2024/03/18 13:46:54;;;;;;;33.20;20.40;;;;;;;2.62;87.11;100368.99;130790;1254;106292;-78
2024/03/18 13:50:00;;;;;;;12.10;8.20;;;;;;;2.67;87.21;100366.02;130694;1253;108553;-78
2024/03/18 13:53:05;;;;;;;14.20;10.50;;;;;;;2.71;87.46;100366.84;130797;1260;107693;-78
2024/03/18 13:56:12;;;;;;;12.30;9.30;;;;;;;2.72;88.00;100368.52;130526;1257;106774;-78
2024/03/18 13:59:17;;;;;;;20.70;12.60;;;;;;;2.67;88.02;100367.08;130712;1254;106823;-77
2024/03/18 14:02:22;;;;;;;85.30;46.70;;;;;;;2.70;87.14;100366.86;130679;1257;106488;-78
2024/03/18 14:05:27;;;;;;;34.70;21.70;;;;;;;2.86;86.78;100362.84;130622;1266;106850;-79
2024/03/18 14:08:34;;;;;;;21.90;13.60;;;;;;;2.89;86.47;100366.56;130559;1257;108671;-78
2024/03/18 14:11:39;;;;;;;35.60;22.20;;;;;;;2.81;86.58;100363.02;130537;1253;108410;-77
2024/03/18 14:14:44;;;;;;;25.30;16.40;;;;;;;2.83;86.59;100364.08;130672;1257;108744;-78